createdAt,value
2023-04-18T00:00:46.917Z,30.14
2023-04-18T00:03:53.951Z,31.76
2023-04-18T00:06:57.396Z,32.46
2023-04-18T00:10:00.858Z,32.46
2023-04-18T00:13:29.264Z,31.94
2023-04-18T00:16:34.329Z,31.44
2023-04-18T00:19:44.021Z,31.27
2023-04-18T00:22:47.455Z,31.54
2023-04-18T00:25:57.119Z,31.21
2023-04-18T00:29:00.612Z,31.22
2023-04-18T00:32:10.403Z,31.16
2023-04-18T00:35:16.291Z,31.43
2023-04-18T00:38:22.687Z,30.62
2023-04-18T00:41:28.390Z,30.12
2023-04-18T00:44:33.025Z,30.39
2023-04-18T00:47:36.969Z,30.54
2023-04-18T00:50:41.442Z,29.81
2023-04-18T00:53:46.762Z,28.93
2023-04-18T00:56:50.155Z,27.73
2023-04-18T00:59:53.775Z,26.30
2023-04-18T01:03:00.241Z,26.26
2023-04-18T01:06:04.022Z,25.49
2023-04-18T01:09:12.762Z,25.45
2023-04-18T01:12:16.606Z,25.10
2023-04-18T01:15:20.091Z,25.56
2023-04-18T01:18:23.693Z,24.60
2023-04-18T01:21:34.597Z,24.29
2023-04-18T01:24:39.810Z,24.11
2023-04-18T01:27:52.402Z,23.85
2023-04-18T01:31:21.292Z,22.44
2023-04-18T01:34:24.853Z,21.23
2023-04-18T01:37:28.387Z,21.91
2023-04-18T01:40:32.802Z,22.05
2023-04-18T01:43:36.336Z,22.62
2023-04-18T01:46:41.611Z,22.58
2023-04-18T01:49:49.764Z,21.60
2023-04-18T01:53:18.668Z,22.25
2023-04-18T01:56:22.276Z,22.27
2023-04-18T01:59:25.749Z,22.61
2023-04-18T02:02:29.246Z,22.80
2023-04-18T02:05:32.766Z,24.44
2023-04-18T02:08:36.457Z,22.41
2023-04-18T02:11:42.629Z,24.37
2023-04-18T02:14:46.271Z,21.96
2023-04-18T02:17:51.208Z,21.72
2023-04-18T02:20:54.830Z,21.28
2023-04-18T02:24:24.112Z,21.71
2023-04-18T02:27:35.772Z,19.76
2023-04-18T02:30:42.136Z,19.52
2023-04-18T02:33:48.343Z,19.90
2023-04-18T02:36:51.700Z,20.14
2023-04-18T02:39:55.444Z,19.89
2023-04-18T02:43:09.606Z,19.65
2023-04-18T02:46:13.416Z,19.58
2023-04-18T02:52:34.221Z,19.13
2023-04-18T02:55:38.352Z,19.49
2023-04-18T02:58:41.776Z,20.91
2023-04-18T03:02:17.877Z,19.81
2023-04-18T03:05:27.730Z,19.40
2023-04-18T03:08:34.700Z,20.27
2023-04-18T03:11:41.054Z,19.91
2023-04-18T03:14:46.888Z,20.58
2023-04-18T03:17:56.494Z,18.97
2023-04-18T03:21:06.030Z,20.18
2023-04-18T03:24:12.340Z,18.83
2023-04-18T03:27:23.979Z,18.61
2023-04-18T03:30:46.453Z,18.70
2023-04-18T03:48:08.489Z,18.65
2023-04-18T03:51:35.342Z,18.28
2023-04-18T03:54:39.935Z,17.46
2023-04-18T03:57:43.634Z,18.55
2023-04-18T04:00:55.454Z,17.92
2023-04-18T04:07:45.939Z,18.06
2023-04-18T04:11:03.292Z,18.79
2023-04-18T04:14:31.703Z,18.33
2023-04-18T04:17:54.318Z,19.19
2023-04-18T04:21:01.737Z,20.75
2023-04-18T04:24:18.605Z,25.55
2023-04-18T04:27:57.192Z,29.75
2023-04-18T04:31:25.499Z,27.74
2023-04-18T04:34:42.202Z,28.07
2023-04-18T04:37:48.239Z,32.64
2023-04-18T04:41:01.138Z,33.16
2023-04-18T04:44:06.371Z,32.08
2023-04-18T04:47:17.202Z,31.26
2023-04-18T04:50:20.971Z,32.00
2023-04-18T04:53:25.560Z,32.97
2023-04-18T04:56:29.711Z,30.88
2023-04-18T04:59:36.357Z,29.79
2023-04-18T05:02:39.854Z,29.19
2023-04-18T05:05:43.549Z,31.31
2023-04-18T05:08:50.567Z,32.29
2023-04-18T05:11:55.087Z,33.45
2023-04-18T05:14:58.914Z,32.72
2023-04-18T05:18:02.753Z,31.20
2023-04-18T05:21:10.373Z,31.43
2023-04-18T05:24:20.760Z,31.77
2023-04-18T05:27:48.772Z,32.04
2023-04-18T05:31:04.178Z,32.48
2023-04-18T05:34:07.647Z,32.22
2023-04-18T05:37:27.384Z,32.97
2023-04-18T05:40:36.871Z,32.02
2023-04-18T05:43:54.264Z,33.21
2023-04-18T05:50:44.374Z,31.89
2023-04-18T05:53:50.780Z,31.50
2023-04-18T05:56:58.474Z,31.05
2023-04-18T06:00:13.033Z,31.15
2023-04-18T06:03:43.823Z,30.68
2023-04-18T06:06:47.618Z,30.98
2023-04-18T06:09:54.760Z,31.10
2023-04-18T06:13:16.091Z,30.97
2023-04-18T06:16:19.587Z,30.34
2023-04-18T06:19:41.011Z,30.22
2023-04-18T06:23:10.455Z,29.92
2023-04-18T06:26:14.636Z,29.49
2023-04-18T06:29:43.977Z,29.65
2023-04-18T06:32:48.474Z,30.31
2023-04-18T06:35:55.501Z,31.85
2023-04-18T06:39:03.034Z,33.65
2023-04-18T06:42:31.228Z,35.22
2023-04-18T06:45:42.812Z,35.21
2023-04-18T06:49:12.230Z,36.40
2023-04-18T06:52:17.080Z,38.17
2023-04-18T06:55:46.916Z,39.56
2023-04-18T06:59:13.534Z,39.39
2023-04-18T07:02:44.239Z,40.67
2023-04-18T07:05:47.857Z,42.01
2023-04-18T07:08:53.968Z,41.87
2023-04-18T07:15:37.135Z,43.53
2023-04-18T07:25:50.916Z,42.59
2023-04-18T07:29:04.231Z,43.64
2023-04-18T07:32:33.510Z,44.65
2023-04-18T07:35:41.256Z,45.76
2023-04-18T07:39:18.326Z,47.78
2023-04-18T07:42:24.484Z,48.74
2023-04-18T07:45:37.124Z,47.73
2023-04-18T07:48:52.888Z,49.02
2023-04-18T07:55:35.436Z,46.35
2023-04-18T07:58:43.416Z,44.74
2023-04-18T08:01:53.445Z,44.45
2023-04-18T08:05:22.438Z,43.15
2023-04-18T08:09:28.613Z,41.39
2023-04-18T08:12:47.268Z,41.15
2023-04-18T08:19:15.886Z,39.77
2023-04-18T08:23:05.246Z,39.23
2023-04-18T08:26:15.291Z,39.11
2023-04-18T08:29:23.870Z,39.90
2023-04-18T08:32:30.385Z,41.23
2023-04-18T08:35:45.917Z,45.54
2023-04-18T08:39:09.034Z,46.78
2023-04-18T08:42:23.695Z,48.48
2023-04-18T08:45:29.652Z,49.22
2023-04-18T08:49:03.169Z,50.25
2023-04-18T08:56:18.357Z,51.06
2023-04-18T09:03:08.241Z,51.44
2023-04-18T09:06:39.762Z,51.62
2023-04-18T09:09:52.393Z,52.06
2023-04-18T09:13:00.382Z,51.69
2023-04-18T09:16:15.653Z,50.48
2023-04-18T09:19:24.650Z,49.25
2023-04-18T09:22:49.018Z,48.78
2023-04-18T09:26:37.329Z,50.21
2023-04-18T09:29:51.303Z,51.56
2023-04-18T09:33:03.548Z,52.75
2023-04-18T09:36:19.539Z,52.99
2023-04-18T09:39:53.731Z,53.12
2023-04-18T09:42:58.751Z,52.95
2023-04-18T09:46:23.778Z,53.39
2023-04-18T09:49:28.924Z,53.59
2023-04-18T09:57:51.768Z,53.82
2023-04-18T10:01:31.212Z,53.97
2023-04-18T10:04:38.340Z,53.91
2023-04-18T10:08:07.162Z,53.74
2023-04-18T10:11:37.437Z,54.04
2023-04-18T10:14:46.133Z,53.76
2023-04-18T10:21:05.324Z,54.69
2023-04-18T10:24:29.196Z,54.78
2023-04-18T10:27:51.537Z,54.91
2023-04-18T10:31:05.993Z,54.52
2023-04-18T10:34:09.625Z,55.17
2023-04-18T10:37:22.374Z,55.77
2023-04-18T10:40:43.025Z,56.26
2023-04-18T10:44:08.973Z,56.64
2023-04-18T10:47:22.939Z,57.23
2023-04-18T10:50:27.099Z,56.97
2023-04-18T10:53:31.597Z,57.03
2023-04-18T10:56:35.275Z,57.16
2023-04-18T10:59:59.082Z,57.46
2023-04-18T11:03:03.143Z,57.94
2023-04-18T11:06:08.329Z,58.27
2023-04-18T11:09:16.819Z,58.66
2023-04-18T11:12:23.451Z,59.33
2023-04-18T11:15:29.757Z,59.07
2023-04-18T11:18:43.420Z,59.44
2023-04-18T11:21:47.020Z,59.99
2023-04-18T11:24:50.518Z,60.24
2023-04-18T11:27:55.737Z,60.15
2023-04-18T11:31:00.916Z,59.79
2023-04-18T11:34:54.970Z,60.12
2023-04-18T11:37:59.200Z,60.27
2023-04-18T11:41:05.946Z,59.81
2023-04-18T11:44:09.345Z,59.39
2023-04-18T11:47:32.492Z,59.55
2023-04-18T11:50:38.362Z,59.60
2023-04-18T11:53:42.016Z,59.98
2023-04-18T11:56:49.756Z,59.82
2023-04-18T12:00:01.635Z,59.83
2023-04-18T12:03:19.527Z,60.19
2023-04-18T12:06:23.397Z,60.78
2023-04-18T12:09:30.765Z,61.55
2023-04-18T12:12:37.884Z,62.13
2023-04-18T12:15:45.195Z,62.40
2023-04-18T12:18:48.608Z,62.48
2023-04-18T12:28:55.637Z,62.33
2023-04-18T12:32:31.083Z,62.77
2023-04-18T12:36:19.043Z,62.57
2023-04-18T12:39:26.843Z,63.06
2023-04-18T12:42:30.437Z,62.97
2023-04-18T12:45:33.990Z,63.19
2023-04-18T12:48:37.525Z,62.85
2023-04-18T12:52:06.046Z,63.04
2023-04-18T12:55:16.392Z,63.18
2023-04-18T12:58:21.572Z,63.12
2023-04-18T13:01:36.134Z,63.25
2023-04-18T13:04:42.374Z,63.60
2023-04-18T13:07:50.433Z,63.35
2023-04-18T13:10:58.450Z,63.48
2023-04-18T13:14:07.955Z,63.63
2023-04-18T13:17:15.481Z,63.88
2023-04-18T13:20:22.009Z,64.04
2023-04-18T13:23:27.440Z,64.01
2023-04-18T13:27:03.097Z,64.07
2023-04-18T13:30:07.336Z,64.73
2023-04-18T13:33:11.399Z,65.03
2023-04-18T13:36:18.752Z,65.35
2023-04-18T13:39:25.432Z,65.92
2023-04-18T13:42:32.127Z,66.07
2023-04-18T13:45:35.591Z,66.01
2023-04-18T13:49:04.100Z,66.34
2023-04-18T13:52:07.640Z,66.45
2023-04-18T13:55:13.138Z,66.78
2023-04-18T13:58:18.876Z,66.87
2023-04-18T14:01:22.991Z,66.78
2023-04-18T14:04:32.595Z,67.04
2023-04-18T14:07:37.993Z,67.71
2023-04-18T14:10:41.500Z,68.21
2023-04-18T14:13:44.771Z,68.68
2023-04-18T14:16:58.593Z,68.71
2023-04-18T14:20:27.290Z,69.03
2023-04-18T14:23:31.572Z,69.23
2023-04-18T14:26:34.880Z,69.27
2023-04-18T14:30:03.238Z,69.16
2023-04-18T14:33:07.902Z,69.46
2023-04-18T14:36:11.469Z,69.81
2023-04-18T14:39:15.106Z,69.71
2023-04-18T14:42:21.695Z,69.94
2023-04-18T14:45:25.067Z,70.24
2023-04-18T14:48:31.410Z,70.44
2023-04-18T14:51:34.810Z,70.42
2023-04-18T14:54:59.719Z,70.54
2023-04-18T14:58:28.235Z,70.42
2023-04-18T15:01:34.490Z,70.60
2023-04-18T15:04:38.331Z,70.61
2023-04-18T15:07:54.212Z,70.66
2023-04-18T15:10:57.687Z,70.86
2023-04-18T15:14:07.841Z,70.68
2023-04-18T15:17:14.919Z,71.05
2023-04-18T15:20:23.667Z,71.08
2023-04-18T15:23:55.574Z,71.41
2023-04-18T15:27:01.050Z,71.35
2023-04-18T15:30:05.124Z,71.37
2023-04-18T15:33:14.541Z,71.60
2023-04-18T15:36:23.924Z,71.43
2023-04-18T15:39:27.430Z,71.09
2023-04-18T15:42:39.647Z,71.05
2023-04-18T15:45:45.063Z,70.74
2023-04-18T15:49:37.898Z,70.46
2023-04-18T15:52:47.418Z,70.09
2023-04-18T15:55:54.989Z,69.56
2023-04-18T15:59:01.002Z,69.34
2023-04-18T16:02:10.207Z,68.98
2023-04-18T16:05:15.809Z,69.05
2023-04-18T16:08:19.123Z,67.92
2023-04-18T16:11:47.583Z,67.86
2023-04-18T16:14:51.044Z,67.44
2023-04-18T16:17:55.139Z,66.98
2023-04-18T16:21:05.933Z,67.98
2023-04-18T16:24:17.082Z,68.51
2023-04-18T16:27:20.336Z,68.97
2023-04-18T16:30:29.385Z,69.15
2023-04-18T16:33:35.799Z,69.38
2023-04-18T16:37:04.546Z,69.77
2023-04-18T16:40:10.534Z,69.81
2023-04-18T16:43:15.928Z,69.83
2023-04-18T16:46:19.788Z,69.81
2023-04-18T16:49:24.338Z,69.89
2023-04-18T16:52:27.636Z,69.43
2023-04-18T16:55:31.050Z,68.84
2023-04-18T16:58:34.387Z,68.74
2023-04-18T17:01:37.642Z,68.51
2023-04-18T17:04:41.688Z,68.17
2023-04-18T17:07:46.662Z,67.66
2023-04-18T17:10:55.770Z,67.21
2023-04-18T17:13:58.960Z,67.13
2023-04-18T17:17:05.187Z,66.91
2023-04-18T17:20:09.120Z,66.72
2023-04-18T17:23:12.565Z,66.51
2023-04-18T17:26:16.020Z,66.72
2023-04-18T17:29:19.637Z,66.58
2023-04-18T17:32:26.046Z,66.69
2023-04-18T17:35:29.437Z,66.80
2023-04-18T17:38:33.120Z,66.40
2023-04-18T17:41:40.915Z,65.87
2023-04-18T17:44:44.209Z,66.79
2023-04-18T17:47:47.519Z,67.03
2023-04-18T17:50:50.895Z,67.55
2023-04-18T17:53:54.601Z,67.59
2023-04-18T17:56:58.557Z,67.79
2023-04-18T18:00:02.387Z,67.80
2023-04-18T18:03:16.402Z,67.95
2023-04-18T18:06:20.096Z,67.90
2023-04-18T18:09:23.383Z,67.76
2023-04-18T18:12:26.889Z,68.35
2023-04-18T18:15:30.556Z,68.89
2023-04-18T18:18:33.991Z,68.96
2023-04-18T18:21:37.293Z,69.01
2023-04-18T18:24:40.583Z,68.94
2023-04-18T18:27:43.880Z,68.53
2023-04-18T18:30:47.162Z,68.62
2023-04-18T18:33:50.409Z,68.88
2023-04-18T18:36:54.220Z,68.73
2023-04-18T18:39:57.581Z,68.41
2023-04-18T18:43:01.609Z,68.64
2023-04-18T18:46:04.885Z,68.60
2023-04-18T18:49:08.762Z,68.37
2023-04-18T18:52:12.107Z,68.06
2023-04-18T18:55:16.456Z,68.05
2023-04-18T18:58:19.795Z,68.49
2023-04-18T19:04:40.371Z,68.16
2023-04-18T19:07:43.750Z,68.09
2023-04-18T19:10:47.151Z,68.11
2023-04-18T19:13:52.827Z,67.86
2023-04-18T19:16:56.717Z,68.13
2023-04-18T19:20:02.007Z,68.69
2023-04-18T19:23:05.344Z,69.91
2023-04-18T19:26:09.022Z,70.46
2023-04-18T19:29:15.010Z,70.97
2023-04-18T19:32:18.499Z,71.27
2023-04-18T19:35:21.925Z,71.27
2023-04-18T19:38:25.258Z,71.14
2023-04-18T19:41:28.558Z,70.87
2023-04-18T19:44:33.098Z,70.06
2023-04-18T19:47:37.232Z,69.25
2023-04-18T19:50:41.319Z,68.54
2023-04-18T19:53:44.616Z,68.60
2023-04-18T19:56:47.928Z,68.98
2023-04-18T19:59:51.500Z,69.16
2023-04-18T20:02:55.415Z,68.70
2023-04-18T20:05:59.166Z,68.15
2023-04-18T20:09:02.449Z,67.97
2023-04-18T20:12:05.917Z,67.88
2023-04-18T20:15:09.754Z,67.50
2023-04-18T20:18:13.165Z,67.23
2023-04-18T20:21:16.778Z,67.14
2023-04-18T20:24:21.813Z,66.80
2023-04-18T20:27:25.246Z,66.78
2023-04-18T20:30:28.763Z,66.51
2023-04-18T20:33:32.071Z,66.84
2023-04-18T20:36:36.214Z,66.61
2023-04-18T20:39:40.583Z,66.81
2023-04-18T20:42:43.935Z,66.80
2023-04-18T20:45:52.120Z,66.84
2023-04-18T20:48:55.408Z,67.25
2023-04-18T20:51:58.714Z,67.67
2023-04-18T20:55:02.067Z,67.24
2023-04-18T20:58:05.365Z,67.66
2023-04-18T21:01:08.774Z,68.20
2023-04-18T21:04:12.288Z,68.25
2023-04-18T21:07:15.824Z,67.65
2023-04-18T21:10:19.327Z,67.69
2023-04-18T21:13:22.624Z,68.14
2023-04-18T21:16:26.548Z,68.34
2023-04-18T21:19:29.888Z,68.31
2023-04-18T21:22:33.142Z,68.19
2023-04-18T21:25:36.431Z,67.75
2023-04-18T21:28:59.808Z,67.32
2023-04-18T21:32:03.717Z,67.32
2023-04-18T21:35:07.598Z,67.27
2023-04-18T21:38:10.857Z,67.25
2023-04-18T21:41:17.609Z,67.54
2023-04-18T21:44:21.001Z,67.93
2023-04-18T21:47:24.386Z,67.74
2023-04-18T21:50:27.680Z,67.53
2023-04-18T21:53:31.095Z,67.12
2023-04-18T21:56:34.392Z,66.72
2023-04-18T21:59:37.732Z,66.70
2023-04-18T22:02:41.226Z,66.58
2023-04-18T22:05:44.642Z,66.38
2023-04-18T22:08:48.906Z,65.98
2023-04-18T22:11:52.435Z,65.70
2023-04-18T22:14:57.384Z,65.36
2023-04-18T22:18:01.823Z,65.09
2023-04-18T22:21:05.251Z,65.22
2023-04-18T22:24:09.297Z,65.69
2023-04-18T22:27:12.679Z,65.53
2023-04-18T22:30:16.218Z,65.30
2023-04-18T22:33:19.587Z,65.21
2023-04-18T22:36:22.921Z,64.87
2023-04-18T22:39:26.779Z,65.76
2023-04-18T22:42:30.220Z,65.10
2023-04-18T22:45:35.377Z,66.72
2023-04-18T22:48:39.115Z,66.40
2023-04-18T22:51:42.957Z,67.27
2023-04-18T22:54:46.401Z,66.53
2023-04-18T22:57:49.662Z,67.04
2023-04-18T23:00:52.918Z,67.90
2023-04-18T23:03:56.729Z,68.89
2023-04-18T23:07:00.193Z,67.92
2023-04-18T23:10:07.039Z,68.59
2023-04-18T23:13:10.358Z,68.66
2023-04-18T23:16:13.766Z,70.06
2023-04-18T23:19:17.132Z,70.12
2023-04-18T23:22:21.103Z,72.11
2023-04-18T23:25:24.513Z,71.33
2023-04-18T23:28:27.846Z,72.59
2023-04-18T23:31:33.552Z,71.83
2023-04-18T23:34:36.926Z,72.37
2023-04-18T23:37:40.241Z,72.49
2023-04-18T23:40:43.600Z,74.21
2023-04-18T23:43:46.927Z,75.72
2023-04-18T23:46:50.421Z,76.43
2023-04-18T23:49:53.684Z,76.27
2023-04-18T23:52:57.103Z,77.14
2023-04-18T23:56:00.483Z,76.78
2023-04-18T23:59:03.805Z,77.21
